createdAt,value
2022-08-25T00:00:18.054Z,21.20
2022-08-25T00:02:55.523Z,21.20
2022-08-25T00:05:29.201Z,21.10
2022-08-25T00:08:01.264Z,21.10
2022-08-25T00:10:30.327Z,21.10
2022-08-25T00:13:00.220Z,21.30
2022-08-25T00:15:32.523Z,21.10
2022-08-25T00:18:01.338Z,21.00
2022-08-25T00:20:30.816Z,20.80
2022-08-25T00:22:59.437Z,20.70
2022-08-25T00:25:28.422Z,20.70
2022-08-25T00:27:57.448Z,20.70
2022-08-25T00:30:25.877Z,20.90
2022-08-25T00:32:57.558Z,21.00
2022-08-25T00:35:27.403Z,21.00
2022-08-25T00:37:56.462Z,20.90
2022-08-25T00:40:28.029Z,20.70
2022-08-25T00:42:57.182Z,20.60
2022-08-25T00:45:25.965Z,20.50
2022-08-25T00:47:56.675Z,20.40
2022-08-25T00:50:30.109Z,20.30
2022-08-25T00:53:01.551Z,20.30
2022-08-25T00:55:34.318Z,20.20
2022-08-25T00:58:08.510Z,20.20
2022-08-25T01:00:41.420Z,20.20
2022-08-25T01:03:12.223Z,20.10
2022-08-25T01:05:42.894Z,19.90
2022-08-25T01:08:12.219Z,19.90
2022-08-25T01:10:47.241Z,19.80
2022-08-25T01:13:19.538Z,19.70
2022-08-25T01:15:49.768Z,19.70
2022-08-25T01:18:19.685Z,19.60
2022-08-25T01:20:51.680Z,19.50
2022-08-25T01:23:20.711Z,19.50
2022-08-25T01:25:54.471Z,19.40
2022-08-25T01:28:23.303Z,19.40
2022-08-25T01:30:52.591Z,19.50
2022-08-25T01:33:21.585Z,19.50
2022-08-25T01:35:51.772Z,19.50
2022-08-25T01:38:21.077Z,19.50
2022-08-25T01:40:51.632Z,19.50
2022-08-25T01:43:31.857Z,19.50
2022-08-25T01:46:00.451Z,19.50
2022-08-25T01:48:29.267Z,19.40
2022-08-25T01:50:59.144Z,19.30
2022-08-25T01:53:33.271Z,19.20
2022-08-25T01:56:10.379Z,19.10
2022-08-25T01:58:42.132Z,19.10
2022-08-25T02:01:13.705Z,19.00
2022-08-25T02:03:45.097Z,19.10
2022-08-25T02:06:20.287Z,19.10
2022-08-25T02:08:59.465Z,19.30
2022-08-25T02:11:36.726Z,19.10
2022-08-25T02:14:05.950Z,18.80
2022-08-25T02:16:36.959Z,18.70
2022-08-25T02:19:06.939Z,18.60
2022-08-25T02:21:37.423Z,18.60
2022-08-25T02:24:06.697Z,18.70
2022-08-25T02:26:36.295Z,18.50
2022-08-25T02:29:06.850Z,18.40
2022-08-25T02:31:36.952Z,18.30
2022-08-25T02:34:06.456Z,18.30
2022-08-25T02:36:36.676Z,18.20
2022-08-25T02:39:06.174Z,18.10
2022-08-25T02:41:35.133Z,18.00
2022-08-25T02:44:05.487Z,18.00
2022-08-25T02:46:34.542Z,18.00
2022-08-25T02:49:03.125Z,18.00
2022-08-25T02:51:32.319Z,18.00
2022-08-25T02:54:03.884Z,17.90
2022-08-25T02:56:34.604Z,17.80
2022-08-25T02:59:04.405Z,17.70
2022-08-25T03:01:33.822Z,17.70
2022-08-25T03:04:03.243Z,17.70
2022-08-25T03:06:32.430Z,17.70
2022-08-25T03:09:02.975Z,17.60
2022-08-25T03:11:34.523Z,17.50
2022-08-25T03:14:02.941Z,17.50
2022-08-25T03:16:31.934Z,17.50
2022-08-25T03:19:01.964Z,17.40
2022-08-25T03:21:31.499Z,17.40
2022-08-25T03:24:02.251Z,17.40
2022-08-25T03:26:47.960Z,17.40
2022-08-25T03:29:17.566Z,17.40
2022-08-25T03:31:46.279Z,17.50
2022-08-25T03:34:16.857Z,17.50
2022-08-25T03:36:46.568Z,17.50
2022-08-25T03:39:17.856Z,17.40
2022-08-25T03:41:47.357Z,17.30
2022-08-25T03:44:17.076Z,17.30
2022-08-25T03:46:48.073Z,17.20
2022-08-25T03:49:18.792Z,17.20
2022-08-25T03:51:49.887Z,17.20
2022-08-25T03:54:23.261Z,17.10
2022-08-25T03:56:52.055Z,17.10
2022-08-25T03:59:21.039Z,17.10
2022-08-25T04:01:55.106Z,17.20
2022-08-25T04:04:24.249Z,17.10
2022-08-25T04:06:53.112Z,17.10
2022-08-25T04:09:23.685Z,17.20
2022-08-25T04:11:53.357Z,17.10
2022-08-25T04:14:23.941Z,17.10
2022-08-25T04:16:54.311Z,17.10
2022-08-25T04:19:22.923Z,17.20
2022-08-25T04:21:51.836Z,17.20
2022-08-25T04:24:26.527Z,17.10
2022-08-25T04:26:55.012Z,17.10
2022-08-25T04:29:25.624Z,17.10
2022-08-25T04:31:55.329Z,17.00
2022-08-25T04:34:31.038Z,17.00
2022-08-25T04:37:01.481Z,16.90
2022-08-25T04:39:32.080Z,16.90
2022-08-25T04:42:01.354Z,16.90
2022-08-25T04:44:33.184Z,16.80
2022-08-25T04:47:02.358Z,16.90
2022-08-25T04:49:32.107Z,16.90
2022-08-25T04:52:00.794Z,16.90
2022-08-25T04:54:37.068Z,16.90
2022-08-25T04:57:06.178Z,16.90
2022-08-25T04:59:34.844Z,16.80
2022-08-25T05:02:07.474Z,16.80
2022-08-25T05:04:39.568Z,16.80
2022-08-25T05:07:08.129Z,16.90
2022-08-25T05:09:38.905Z,16.90
2022-08-25T05:12:07.874Z,16.90
2022-08-25T05:14:39.073Z,17.00
2022-08-25T05:17:08.296Z,17.00
2022-08-25T05:19:37.529Z,17.10
2022-08-25T05:22:06.884Z,17.20
2022-08-25T05:24:35.338Z,17.20
2022-08-25T05:27:05.578Z,17.30
2022-08-25T05:29:34.601Z,17.30
2022-08-25T05:32:03.269Z,17.40
2022-08-25T05:34:31.995Z,17.50
2022-08-25T05:37:03.383Z,17.70
2022-08-25T05:39:34.078Z,17.80
2022-08-25T05:42:02.730Z,18.00
2022-08-25T05:44:32.992Z,18.10
2022-08-25T05:47:01.617Z,18.10
2022-08-25T05:49:30.290Z,18.60
2022-08-25T05:51:59.402Z,18.70
2022-08-25T05:54:28.020Z,18.60
2022-08-25T05:56:57.115Z,18.60
2022-08-25T05:59:26.037Z,18.70
2022-08-25T06:02:13.397Z,18.70
2022-08-25T06:04:41.895Z,18.80
2022-08-25T06:07:10.582Z,18.90
2022-08-25T06:09:40.049Z,19.00
2022-08-25T06:12:09.960Z,19.20
2022-08-25T06:14:38.850Z,19.30
2022-08-25T06:17:09.166Z,19.50
2022-08-25T06:19:38.201Z,19.70
2022-08-25T06:22:10.248Z,19.90
2022-08-25T06:24:39.025Z,20.10
2022-08-25T06:27:07.837Z,20.30
2022-08-25T06:29:36.582Z,20.40
2022-08-25T06:32:06.997Z,20.70
2022-08-25T06:34:37.235Z,20.90
2022-08-25T06:37:06.046Z,21.00
2022-08-25T06:39:34.707Z,21.20
2022-08-25T06:42:03.283Z,21.30
2022-08-25T06:44:31.937Z,21.50
2022-08-25T06:47:00.577Z,21.60
2022-08-25T06:49:34.178Z,21.90
2022-08-25T06:52:06.588Z,22.20
2022-08-25T06:54:35.229Z,22.40
2022-08-25T06:57:04.045Z,22.70
2022-08-25T06:59:32.664Z,22.90
2022-08-25T07:02:01.553Z,22.90
2022-08-25T07:04:32.763Z,23.10
2022-08-25T07:07:01.836Z,23.40
2022-08-25T07:09:35.219Z,23.50
2022-08-25T07:12:06.299Z,23.60
2022-08-25T07:14:35.176Z,23.70
2022-08-25T07:17:10.550Z,23.90
2022-08-25T07:19:41.328Z,24.00
2022-08-25T07:22:10.054Z,24.20
2022-08-25T07:24:40.241Z,24.30
2022-08-25T07:27:08.943Z,24.40
2022-08-25T07:29:42.634Z,24.50
2022-08-25T07:32:11.366Z,24.70
2022-08-25T07:34:57.045Z,24.80
2022-08-25T07:37:47.627Z,24.90
2022-08-25T07:40:19.065Z,24.90
2022-08-25T07:42:48.610Z,25.20
2022-08-25T07:45:21.034Z,25.20
2022-08-25T07:47:52.272Z,25.30
2022-08-25T07:50:21.627Z,25.40
2022-08-25T07:52:55.189Z,25.60
2022-08-25T07:55:27.110Z,25.70
2022-08-25T07:57:57.529Z,25.90
2022-08-25T08:00:28.448Z,26.00
2022-08-25T08:02:57.948Z,26.20
2022-08-25T08:05:27.199Z,26.20
2022-08-25T08:07:57.069Z,26.40
2022-08-25T08:11:04.016Z,26.40
2022-08-25T08:13:18.686Z,26.50
2022-08-25T08:15:48.733Z,26.70
2022-08-25T08:18:18.477Z,26.80
2022-08-25T08:20:48.368Z,26.80
2022-08-25T08:23:18.408Z,26.90
2022-08-25T08:25:50.922Z,27.00
2022-08-25T08:28:19.528Z,27.00
2022-08-25T08:30:53.153Z,27.10
2022-08-25T08:33:25.151Z,27.10
2022-08-25T08:36:05.032Z,27.30
2022-08-25T08:38:34.953Z,27.30
2022-08-25T08:41:54.267Z,27.50
2022-08-25T08:44:41.053Z,27.60
2022-08-25T08:47:15.345Z,27.70
2022-08-25T08:49:56.657Z,27.90
2022-08-25T08:52:34.060Z,28.00
2022-08-25T08:55:08.840Z,28.10
2022-08-25T08:57:46.560Z,28.10
2022-08-25T09:00:16.265Z,28.20
2022-08-25T09:02:52.519Z,28.30
2022-08-25T09:05:26.792Z,28.40
2022-08-25T09:12:37.600Z,28.70
2022-08-25T09:15:24.387Z,28.90
2022-08-25T09:18:14.039Z,29.10
2022-08-25T09:21:11.435Z,29.20
2022-08-25T09:23:56.582Z,29.30
2022-08-25T09:26:36.928Z,29.60
2022-08-25T09:29:16.720Z,29.60
2022-08-25T09:31:50.353Z,29.70
2022-08-25T09:34:35.620Z,29.90
2022-08-25T09:37:04.960Z,30.10
2022-08-25T09:39:49.051Z,30.30
2022-08-25T09:42:24.093Z,30.30
2022-08-25T09:44:57.381Z,30.50
2022-08-25T09:47:54.704Z,30.70
2022-08-25T09:51:13.743Z,31.00
2022-08-25T09:53:57.729Z,31.50
2022-08-25T09:56:52.514Z,32.30
2022-08-25T10:00:03.421Z,33.10
2022-08-25T10:02:50.143Z,33.90
2022-08-25T10:05:46.475Z,34.80
2022-08-25T10:08:39.520Z,35.50
2022-08-25T10:12:01.980Z,35.50
2022-08-25T10:14:44.326Z,35.60
2022-08-25T10:17:43.432Z,36.20
2022-08-25T10:20:23.374Z,36.20
2022-08-25T10:33:17.667Z,36.70
2022-08-25T10:36:11.088Z,37.10
2022-08-25T10:39:01.484Z,37.40
2022-08-25T10:45:38.948Z,38.00
2022-08-25T10:48:50.832Z,37.90
2022-08-25T10:51:53.504Z,38.00
2022-08-25T10:54:40.104Z,38.30
2022-08-25T10:57:29.542Z,38.30
2022-08-25T11:00:07.324Z,38.30
2022-08-25T11:03:21.981Z,38.30
2022-08-25T11:06:08.101Z,38.40
2022-08-25T11:08:44.903Z,38.20
2022-08-25T11:11:36.475Z,38.40
2022-08-25T11:14:22.090Z,38.60
2022-08-25T11:16:59.396Z,38.50
2022-08-25T11:19:33.803Z,37.90
2022-08-25T11:22:14.600Z,38.00
2022-08-25T11:24:58.795Z,37.50
2022-08-25T11:27:37.647Z,38.20
2022-08-25T11:30:10.473Z,39.00
2022-08-25T11:32:42.649Z,39.70
2022-08-25T11:35:14.616Z,39.70
2022-08-25T11:37:50.445Z,39.90
2022-08-25T11:40:40.648Z,39.70
2022-08-25T11:43:35.704Z,39.70
2022-08-25T11:46:22.812Z,40.30
2022-08-25T11:49:09.553Z,41.00
2022-08-25T11:51:45.985Z,41.20
2022-08-25T11:54:25.250Z,41.00
2022-08-25T11:57:02.440Z,41.20
2022-08-25T12:00:03.964Z,41.10
2022-08-25T12:02:41.547Z,41.30
2022-08-25T12:05:33.706Z,41.70
2022-08-25T12:08:22.716Z,41.80
2022-08-25T12:10:59.255Z,41.80
2022-08-25T12:13:49.388Z,41.80
2022-08-25T12:16:40.996Z,42.10
2022-08-25T12:19:30.099Z,41.70
2022-08-25T12:22:38.536Z,41.80
2022-08-25T12:25:17.011Z,42.10
2022-08-25T12:28:02.450Z,42.40
2022-08-25T12:30:50.618Z,41.90
2022-08-25T12:33:44.740Z,42.10
2022-08-25T12:36:29.075Z,42.10
2022-08-25T12:39:24.234Z,42.30
2022-08-25T12:42:06.209Z,42.90
2022-08-25T12:44:44.108Z,43.20
2022-08-25T12:47:32.018Z,42.80
2022-08-25T12:50:28.486Z,42.70
2022-08-25T12:53:11.791Z,42.60
2022-08-25T12:55:50.308Z,43.40
2022-08-25T12:58:19.457Z,43.20
2022-08-25T13:01:15.647Z,42.80
2022-08-25T13:04:25.889Z,43.10
2022-08-25T13:07:11.103Z,43.30
2022-08-25T13:10:22.437Z,43.10
2022-08-25T13:13:01.649Z,42.70
2022-08-25T13:15:37.942Z,42.60
2022-08-25T13:18:19.763Z,42.90
2022-08-25T13:20:54.847Z,43.70
2022-08-25T13:23:30.157Z,43.50
2022-08-25T13:26:01.537Z,43.80
2022-08-25T13:28:33.555Z,44.20
2022-08-25T13:31:09.780Z,44.30
2022-08-25T13:33:39.566Z,44.40
2022-08-25T13:36:36.101Z,44.80
2022-08-25T13:39:15.002Z,45.20
2022-08-25T13:41:55.366Z,45.20
2022-08-25T13:44:30.536Z,44.60
2022-08-25T13:47:11.582Z,44.40
2022-08-25T13:49:51.716Z,44.20
2022-08-25T13:52:29.472Z,44.00
2022-08-25T13:55:04.762Z,42.40
2022-08-25T13:57:35.166Z,42.10
2022-08-25T14:00:11.579Z,43.10
2022-08-25T14:02:44.686Z,44.60
2022-08-25T14:05:32.368Z,45.30
2022-08-25T14:08:28.618Z,44.80
2022-08-25T14:11:14.579Z,45.20
2022-08-25T14:13:46.543Z,45.20
2022-08-25T14:16:25.505Z,44.70
2022-08-25T14:18:58.587Z,44.50
2022-08-25T14:21:30.240Z,44.30
2022-08-25T14:24:01.843Z,44.80
2022-08-25T14:26:30.766Z,44.80
2022-08-25T14:28:59.533Z,44.80
2022-08-25T14:31:31.892Z,44.70
2022-08-25T14:34:04.200Z,44.80
2022-08-25T14:36:37.905Z,45.10
2022-08-25T14:39:09.320Z,45.20
2022-08-25T14:41:41.963Z,45.00
2022-08-25T14:44:11.855Z,44.40
2022-08-25T14:46:44.643Z,44.90
2022-08-25T14:49:27.375Z,44.80
2022-08-25T14:51:57.428Z,44.80
2022-08-25T14:54:29.532Z,44.90
2022-08-25T14:56:59.133Z,44.80
2022-08-25T14:59:29.356Z,45.60
2022-08-25T15:01:58.556Z,46.20
2022-08-25T15:04:30.135Z,46.20
2022-08-25T15:07:24.036Z,46.30
2022-08-25T15:09:52.960Z,46.40
2022-08-25T15:12:46.143Z,46.40
2022-08-25T15:15:12.155Z,46.50
2022-08-25T15:17:44.574Z,46.00
2022-08-25T15:20:14.031Z,45.40
2022-08-25T15:22:45.838Z,45.70
2022-08-25T15:25:15.858Z,45.20
2022-08-25T15:27:46.150Z,45.10
2022-08-25T15:30:15.761Z,45.10
2022-08-25T15:32:44.496Z,45.30
2022-08-25T15:35:17.566Z,45.40
2022-08-25T15:37:48.282Z,45.80
2022-08-25T15:40:18.530Z,46.20
2022-08-25T15:42:47.209Z,46.00
2022-08-25T15:45:15.975Z,46.00
2022-08-25T15:47:44.621Z,45.90
2022-08-25T15:50:17.068Z,46.00
2022-08-25T15:52:47.589Z,43.80
2022-08-25T15:55:20.124Z,43.30
2022-08-25T15:57:49.690Z,44.30
2022-08-25T16:00:19.977Z,44.50
2022-08-25T16:02:50.600Z,44.90
2022-08-25T16:05:25.647Z,44.30
2022-08-25T16:07:55.102Z,44.00
2022-08-25T16:10:25.730Z,44.70
2022-08-25T16:12:54.956Z,45.60
2022-08-25T16:15:28.724Z,46.20
2022-08-25T16:18:00.224Z,45.90
2022-08-25T16:20:29.466Z,45.90
2022-08-25T16:23:00.829Z,45.60
2022-08-25T16:25:31.978Z,46.40
2022-08-25T16:28:00.860Z,46.50
2022-08-25T16:30:29.620Z,46.30
2022-08-25T16:32:58.351Z,46.50
2022-08-25T16:35:27.749Z,46.00
2022-08-25T16:37:57.945Z,45.40
2022-08-25T16:40:27.408Z,44.80
2022-08-25T16:42:57.910Z,44.40
2022-08-25T16:45:26.784Z,44.50
2022-08-25T16:47:55.905Z,44.70
2022-08-25T16:50:24.660Z,44.30
2022-08-25T16:53:10.272Z,43.70
2022-08-25T16:55:39.944Z,43.80
2022-08-25T16:58:12.681Z,44.00
2022-08-25T17:00:43.988Z,44.00
2022-08-25T17:03:13.648Z,43.60
2022-08-25T17:09:31.199Z,43.40
2022-08-25T17:12:25.818Z,43.00
2022-08-25T17:19:55.540Z,41.20
2022-08-25T17:23:11.960Z,39.60
2022-08-25T17:26:28.002Z,37.70
2022-08-25T17:29:02.615Z,37.00
2022-08-25T17:31:35.041Z,36.10
2022-08-25T17:34:04.481Z,35.60
2022-08-25T17:36:35.725Z,35.20
2022-08-25T17:39:08.736Z,34.80
2022-08-25T17:41:41.797Z,34.60
2022-08-25T17:44:11.512Z,34.60
2022-08-25T17:46:47.396Z,34.50
2022-08-25T17:49:20.181Z,34.40
2022-08-25T17:51:49.557Z,34.10
2022-08-25T17:54:24.782Z,34.00
2022-08-25T17:56:54.045Z,33.80
2022-08-25T17:59:23.590Z,33.70
2022-08-25T18:01:58.949Z,33.40
2022-08-25T18:04:29.685Z,33.30
2022-08-25T18:07:02.746Z,33.20
2022-08-25T18:09:42.216Z,33.00
2022-08-25T18:12:15.604Z,32.80
2022-08-25T18:14:48.653Z,32.60
2022-08-25T18:17:33.947Z,32.30
2022-08-25T18:20:11.898Z,32.20
2022-08-25T18:22:50.040Z,32.00
2022-08-25T18:25:31.118Z,31.80
2022-08-25T18:28:09.876Z,31.60
2022-08-25T18:30:48.000Z,31.40
2022-08-25T18:33:35.861Z,31.10
2022-08-25T18:36:14.204Z,30.80
2022-08-25T18:39:11.662Z,30.50
2022-08-25T18:41:56.066Z,30.30
2022-08-25T18:44:46.778Z,29.90
2022-08-25T18:47:34.265Z,29.70
2022-08-25T18:50:16.107Z,29.50
2022-08-25T18:52:46.583Z,29.40
2022-08-25T18:55:16.194Z,29.30
2022-08-25T18:57:45.850Z,29.20
2022-08-25T19:00:17.691Z,29.10
2022-08-25T19:02:57.526Z,29.00
2022-08-25T19:05:36.601Z,28.90
2022-08-25T19:08:10.936Z,28.70
2022-08-25T19:10:41.599Z,28.50
2022-08-25T19:13:13.593Z,28.20
2022-08-25T19:15:44.062Z,27.90
2022-08-25T19:18:15.274Z,27.70
2022-08-25T19:20:47.725Z,27.80
2022-08-25T19:23:16.969Z,27.70
2022-08-25T19:25:46.033Z,27.50
2022-08-25T19:28:15.932Z,27.20
2022-08-25T19:30:50.551Z,27.10
2022-08-25T19:33:31.421Z,27.10
2022-08-25T19:36:11.642Z,26.90
2022-08-25T19:38:40.900Z,26.60
2022-08-25T19:41:14.116Z,26.40
2022-08-25T19:43:50.477Z,26.20
2022-08-25T19:46:39.350Z,26.10
2022-08-25T19:49:13.811Z,26.10
2022-08-25T19:52:34.486Z,25.80
2022-08-25T19:57:28.545Z,25.60
2022-08-25T19:59:04.283Z,25.30
2022-08-25T20:01:37.498Z,25.30
2022-08-25T20:04:10.764Z,25.10
2022-08-25T20:06:42.962Z,25.10
2022-08-25T20:09:35.693Z,25.20
2022-08-25T20:12:17.122Z,25.00
2022-08-25T20:14:52.863Z,25.20
2022-08-25T20:17:33.045Z,25.10
2022-08-25T20:20:13.380Z,24.80
2022-08-25T20:22:45.056Z,24.70
2022-08-25T20:25:20.950Z,24.80
2022-08-25T20:28:00.128Z,24.90
2022-08-25T20:30:37.438Z,25.00
2022-08-25T20:33:08.465Z,24.90
2022-08-25T20:35:42.365Z,24.60
2022-08-25T20:38:13.589Z,24.50
2022-08-25T20:40:44.495Z,24.40
2022-08-25T20:43:13.682Z,24.20
2022-08-25T20:45:44.063Z,24.20
2022-08-25T20:48:12.918Z,24.20
2022-08-25T20:50:42.998Z,24.20
2022-08-25T20:53:13.616Z,24.10
2022-08-25T20:55:43.862Z,23.90
2022-08-25T20:58:16.995Z,23.70
2022-08-25T21:00:47.990Z,23.50
2022-08-25T21:03:17.075Z,23.60
2022-08-25T21:05:48.845Z,23.60
2022-08-25T21:08:23.731Z,23.60
2022-08-25T21:10:55.183Z,23.50
2022-08-25T21:13:24.400Z,23.50
2022-08-25T21:15:55.227Z,23.50
2022-08-25T21:18:23.904Z,23.40
2022-08-25T21:20:54.452Z,23.40
2022-08-25T21:23:23.546Z,23.60
2022-08-25T21:25:53.472Z,23.60
2022-08-25T21:28:22.705Z,23.50
2022-08-25T21:30:52.624Z,23.20
2022-08-25T21:33:28.242Z,23.00
2022-08-25T21:35:57.437Z,22.90
2022-08-25T21:38:28.496Z,23.00
2022-08-25T21:40:57.728Z,22.80
2022-08-25T21:43:26.539Z,22.50
2022-08-25T21:45:56.174Z,22.30
2022-08-25T21:48:27.063Z,22.20
2022-08-25T21:51:05.231Z,22.20
2022-08-25T21:53:35.279Z,22.10
2022-08-25T21:56:05.564Z,22.00
2022-08-25T21:58:35.584Z,22.10
2022-08-25T22:01:07.393Z,22.20
2022-08-25T22:03:42.597Z,22.30
2022-08-25T22:06:17.170Z,22.40
2022-08-25T22:08:45.904Z,22.30
2022-08-25T22:11:17.059Z,22.10
2022-08-25T22:13:50.433Z,22.10
2022-08-25T22:16:20.254Z,22.00
2022-08-25T22:18:52.350Z,21.90
2022-08-25T22:21:23.844Z,21.80
2022-08-25T22:23:52.884Z,21.70
2022-08-25T22:26:22.094Z,21.50
2022-08-25T22:28:51.478Z,21.50
2022-08-25T22:31:20.861Z,21.60
2022-08-25T22:33:54.177Z,21.50
2022-08-25T22:36:25.719Z,21.50
2022-08-25T22:38:55.431Z,21.30
2022-08-25T22:41:26.711Z,21.20
2022-08-25T22:43:58.290Z,21.10
2022-08-25T22:46:31.482Z,21.10
2022-08-25T22:49:02.152Z,21.00
2022-08-25T22:51:32.057Z,21.10
2022-08-25T22:54:03.858Z,21.10
2022-08-25T22:56:36.761Z,21.20
2022-08-25T22:59:08.925Z,21.00
2022-08-25T23:01:38.487Z,21.00
2022-08-25T23:04:10.924Z,20.90
2022-08-25T23:06:39.769Z,21.00
2022-08-25T23:09:10.123Z,20.90
2022-08-25T23:11:39.457Z,20.80
2022-08-25T23:14:23.773Z,20.70
2022-08-25T23:16:52.498Z,20.80
2022-08-25T23:19:28.162Z,21.10
2022-08-25T23:22:10.397Z,21.20
2022-08-25T23:24:42.731Z,21.30
2022-08-25T23:27:16.482Z,21.20
2022-08-25T23:29:50.970Z,21.20
2022-08-25T23:32:20.040Z,21.10
2022-08-25T23:34:52.534Z,21.00
2022-08-25T23:37:21.543Z,20.90
2022-08-25T23:39:50.649Z,21.00
2022-08-25T23:42:25.948Z,20.90
2022-08-25T23:44:55.659Z,20.80
2022-08-25T23:47:24.510Z,20.80
2022-08-25T23:49:55.731Z,20.80
2022-08-25T23:52:24.307Z,20.80
2022-08-25T23:54:53.394Z,20.70
2022-08-25T23:57:24.549Z,20.90
2022-08-25T23:59:53.556Z,21.00
